createdAt,value
2019-03-20T00:01:04.185Z,52.23
2019-03-20T00:03:34.744Z,51.47
2019-03-20T00:06:05.128Z,51.17
2019-03-20T00:08:35.701Z,50.77
2019-03-20T00:11:06.387Z,48.60
2019-03-20T00:13:36.999Z,49.67
2019-03-20T00:16:07.774Z,47.90
2019-03-20T00:18:38.286Z,49.23
2019-03-20T00:21:08.884Z,49.30
2019-03-20T00:23:39.546Z,52.80
2019-03-20T00:26:10.153Z,53.23
2019-03-20T00:28:40.683Z,54.30
2019-03-20T00:31:11.265Z,52.43
2019-03-20T00:33:41.973Z,50.77
2019-03-20T00:36:12.514Z,49.47
2019-03-20T00:38:43.024Z,44.27
2019-03-20T00:41:13.608Z,43.17
2019-03-20T00:43:44.113Z,42.70
2019-03-20T00:46:14.879Z,41.30
2019-03-20T00:48:45.714Z,42.60
2019-03-20T00:51:16.468Z,43.87
2019-03-20T00:53:47.128Z,47.43
2019-03-20T00:56:17.588Z,47.37
2019-03-20T00:58:48.194Z,50.73
2019-03-20T01:01:18.790Z,50.07
2019-03-20T01:03:49.284Z,50.00
2019-03-20T01:06:19.947Z,51.00
2019-03-20T01:08:50.579Z,51.03
2019-03-20T01:11:21.049Z,52.00
2019-03-20T01:13:51.632Z,52.37
2019-03-20T01:16:22.341Z,51.97
2019-03-20T01:18:52.974Z,50.90
2019-03-20T01:21:23.476Z,50.80
2019-03-20T01:23:54.053Z,47.60
2019-03-20T01:26:24.689Z,48.17
2019-03-20T01:28:55.332Z,53.27
2019-03-20T01:31:25.708Z,58.03
2019-03-20T01:33:56.188Z,54.43
2019-03-20T01:36:27.462Z,53.50
2019-03-20T01:38:57.987Z,50.93
2019-03-20T01:41:37.597Z,51.33
2019-03-20T01:44:00.913Z,49.97
2019-03-20T01:46:31.410Z,49.47
2019-03-20T01:49:01.878Z,51.60
2019-03-20T01:51:32.530Z,52.70
2019-03-20T01:54:02.871Z,53.97
2019-03-20T01:56:33.478Z,56.80
2019-03-20T01:59:03.898Z,55.03
2019-03-20T02:01:34.392Z,55.00
2019-03-20T02:04:04.919Z,55.63
2019-03-20T02:06:35.374Z,54.87
2019-03-20T02:09:08.088Z,52.70
2019-03-20T02:11:38.572Z,53.53
2019-03-20T02:14:09.077Z,53.10
2019-03-20T02:16:39.516Z,49.57
2019-03-20T02:19:10.068Z,51.40
2019-03-20T02:21:40.723Z,52.00
2019-03-20T02:24:11.198Z,54.83
2019-03-20T02:26:41.824Z,52.60
2019-03-20T02:29:12.404Z,49.93
2019-03-20T02:31:42.843Z,50.13
2019-03-20T02:34:13.261Z,48.87
2019-03-20T02:36:43.829Z,50.40
2019-03-20T02:39:14.176Z,48.33
2019-03-20T02:41:44.585Z,52.50
2019-03-20T02:44:15.114Z,50.07
2019-03-20T02:46:45.585Z,49.00
2019-03-20T02:49:16.005Z,47.27
2019-03-20T02:51:46.515Z,44.50
2019-03-20T02:54:16.911Z,42.27
2019-03-20T02:56:47.759Z,36.13
2019-03-20T02:59:18.154Z,29.83
2019-03-20T03:01:48.864Z,24.87
2019-03-20T03:04:19.446Z,22.27
2019-03-20T03:06:50.008Z,21.47
2019-03-20T03:09:20.528Z,20.50
2019-03-20T03:11:51.065Z,17.73
2019-03-20T03:14:21.545Z,17.50
2019-03-20T03:16:52.021Z,18.00
2019-03-20T03:19:22.785Z,17.47
2019-03-20T03:21:53.398Z,16.73
2019-03-20T03:24:23.938Z,17.77
2019-03-20T03:26:54.504Z,17.37
2019-03-20T03:29:25.690Z,17.63
2019-03-20T03:31:56.285Z,17.30
2019-03-20T03:34:26.850Z,19.20
2019-03-20T03:36:57.394Z,19.90
2019-03-20T03:39:27.898Z,20.97
2019-03-20T03:41:58.326Z,20.00
2019-03-20T03:44:28.750Z,21.47
2019-03-20T03:46:59.194Z,22.83
2019-03-20T03:49:29.711Z,27.93
2019-03-20T03:52:00.215Z,35.83
2019-03-20T03:54:30.661Z,45.57
2019-03-20T03:57:01.295Z,48.00
2019-03-20T03:59:31.875Z,49.63
2019-03-20T04:02:02.384Z,49.60
2019-03-20T04:04:32.985Z,43.90
2019-03-20T04:07:03.410Z,39.63
2019-03-20T04:09:34.101Z,38.67
2019-03-20T04:12:04.856Z,28.33
2019-03-20T04:14:35.314Z,26.20
2019-03-20T04:17:26.395Z,23.47
2019-03-20T04:19:57.013Z,21.93
2019-03-20T04:22:27.808Z,22.67
2019-03-20T04:24:58.334Z,23.20
2019-03-20T04:27:28.925Z,22.63
2019-03-20T04:29:59.594Z,23.60
2019-03-20T04:32:30.230Z,23.90
2019-03-20T04:35:01.197Z,23.13
2019-03-20T04:37:31.688Z,23.90
2019-03-20T04:40:02.269Z,22.70
2019-03-20T04:42:32.845Z,23.67
2019-03-20T04:45:03.301Z,22.97
2019-03-20T04:47:33.799Z,22.27
2019-03-20T04:50:05.354Z,21.87
2019-03-20T04:52:36.145Z,21.87
2019-03-20T04:55:07.220Z,21.27
2019-03-20T04:57:37.791Z,23.07
2019-03-20T05:00:11.480Z,23.27
2019-03-20T05:02:42.223Z,23.70
2019-03-20T05:05:13.094Z,23.53
2019-03-20T05:07:43.808Z,25.20
2019-03-20T05:10:14.763Z,28.90
2019-03-20T05:12:45.491Z,38.80
2019-03-20T05:15:16.182Z,45.00
2019-03-20T05:17:46.927Z,37.97
2019-03-20T05:20:17.459Z,35.90
2019-03-20T05:22:48.003Z,35.97
2019-03-20T05:25:18.724Z,33.43
2019-03-20T05:27:49.197Z,34.20
2019-03-20T05:30:20.117Z,37.47
2019-03-20T05:32:50.956Z,32.23
2019-03-20T05:35:22.308Z,31.70
2019-03-20T05:37:52.853Z,33.87
2019-03-20T05:40:23.469Z,32.13
2019-03-20T05:42:54.194Z,31.13
2019-03-20T05:45:27.659Z,28.80
2019-03-20T05:47:58.225Z,24.43
2019-03-20T05:50:28.928Z,28.33
2019-03-20T05:53:06.263Z,30.87
2019-03-20T05:55:37.103Z,28.37
2019-03-20T05:58:08.076Z,25.47
2019-03-20T06:00:39.251Z,24.70
2019-03-20T06:03:09.818Z,23.97
2019-03-20T06:05:40.436Z,24.20
2019-03-20T06:08:11.065Z,25.00
2019-03-20T06:10:41.539Z,23.20
2019-03-20T06:13:12.014Z,22.63
2019-03-20T06:15:42.526Z,23.17
2019-03-20T06:18:12.960Z,22.90
2019-03-20T06:20:43.692Z,23.03
2019-03-20T06:23:14.388Z,22.10
2019-03-20T06:25:44.964Z,22.00
2019-03-20T06:28:15.597Z,22.07
2019-03-20T06:30:46.256Z,23.03
2019-03-20T06:33:16.726Z,24.87
2019-03-20T06:35:47.718Z,25.17
2019-03-20T06:38:18.169Z,25.53
2019-03-20T06:40:48.540Z,27.07
2019-03-20T06:43:19.188Z,26.10
2019-03-20T06:45:49.724Z,30.17
2019-03-20T06:48:20.500Z,28.80
2019-03-20T06:50:51.143Z,27.47
2019-03-20T06:53:21.869Z,28.93
2019-03-20T06:55:52.477Z,28.13
2019-03-20T06:58:23.228Z,29.90
2019-03-20T07:01:11.059Z,31.00
2019-03-20T07:04:12.412Z,28.57
2019-03-20T07:07:08.480Z,28.07
2019-03-20T07:10:20.835Z,30.63
2019-03-20T07:12:51.349Z,31.53
2019-03-20T07:15:21.938Z,33.00
2019-03-20T07:17:52.622Z,30.60
2019-03-20T07:20:23.210Z,33.27
2019-03-20T07:22:53.746Z,32.20
2019-03-20T07:25:24.422Z,33.47
2019-03-20T07:27:54.957Z,26.70
2019-03-20T07:30:25.506Z,23.10
2019-03-20T07:32:56.119Z,22.43
2019-03-20T07:35:26.712Z,21.37
2019-03-20T07:37:57.574Z,22.10
2019-03-20T07:40:28.174Z,19.23
2019-03-20T07:43:08.339Z,18.83
2019-03-20T07:45:31.278Z,19.20
2019-03-20T07:48:01.780Z,15.63
2019-03-20T07:50:32.239Z,15.73
2019-03-20T07:53:03.636Z,15.00
2019-03-20T07:55:34.204Z,14.83
2019-03-20T07:58:04.818Z,14.80
2019-03-20T08:00:35.481Z,13.57
2019-03-20T08:03:06.259Z,14.03
2019-03-20T08:05:36.846Z,14.47
2019-03-20T08:08:07.967Z,14.10
2019-03-20T08:10:38.584Z,13.90
2019-03-20T08:13:09.270Z,14.37
2019-03-20T08:15:40.568Z,14.70
2019-03-20T08:18:11.055Z,14.60
2019-03-20T08:20:41.760Z,15.13
2019-03-20T08:23:12.403Z,14.77
2019-03-20T08:25:42.811Z,14.70
2019-03-20T08:28:13.426Z,15.27
2019-03-20T08:30:43.853Z,15.30
2019-03-20T08:33:14.341Z,14.83
2019-03-20T08:35:44.850Z,15.87
2019-03-20T08:38:18.607Z,15.50
2019-03-20T08:40:48.121Z,15.87
2019-03-20T08:43:18.782Z,15.07
2019-03-20T08:45:49.448Z,15.33
2019-03-20T08:48:19.951Z,15.07
2019-03-20T08:50:50.613Z,14.70
2019-03-20T08:53:21.110Z,14.93
2019-03-20T08:55:51.675Z,15.07
2019-03-20T08:58:22.224Z,14.10
2019-03-20T09:00:52.828Z,13.57
2019-03-20T09:03:23.255Z,11.67
2019-03-20T09:05:53.725Z,10.53
2019-03-20T09:08:29.429Z,10.10
2019-03-20T09:10:56.575Z,11.23
2019-03-20T09:13:27.193Z,8.93
2019-03-20T09:15:57.711Z,7.30
2019-03-20T09:18:28.396Z,7.37
2019-03-20T09:20:59.018Z,6.63
2019-03-20T09:23:29.613Z,6.00
2019-03-20T09:26:00.128Z,6.60
2019-03-20T09:28:30.645Z,5.03
2019-03-20T09:31:01.191Z,2.97
2019-03-20T09:33:31.808Z,5.17
2019-03-20T09:36:02.475Z,3.43
2019-03-20T09:38:42.988Z,3.70
2019-03-20T09:41:05.300Z,3.87
2019-03-20T09:43:35.777Z,3.70
2019-03-20T09:46:06.724Z,3.60
2019-03-20T09:48:37.198Z,3.80
2019-03-20T09:51:07.748Z,3.90
2019-03-20T09:53:38.323Z,3.67
2019-03-20T09:56:08.750Z,3.60
2019-03-20T09:58:39.280Z,3.07
2019-03-20T10:01:09.775Z,3.07
2019-03-20T10:03:40.503Z,3.77
2019-03-20T10:06:11.110Z,3.53
2019-03-20T10:08:41.637Z,5.50
2019-03-20T10:11:12.302Z,2.70
2019-03-20T10:13:42.962Z,2.60
2019-03-20T10:16:13.446Z,2.30
2019-03-20T10:18:44.079Z,2.73
2019-03-20T10:21:14.529Z,2.07
2019-03-20T10:23:44.918Z,2.47
2019-03-20T10:26:15.340Z,1.93
2019-03-20T10:28:45.804Z,1.90
2019-03-20T10:31:16.315Z,1.60
2019-03-20T10:33:46.863Z,2.30
2019-03-20T10:36:17.218Z,2.47
2019-03-20T10:38:48.819Z,1.93
2019-03-20T10:41:19.427Z,2.30
2019-03-20T10:43:52.254Z,2.10
2019-03-20T10:46:22.251Z,2.30
2019-03-20T10:48:53.226Z,2.00
2019-03-20T10:51:23.715Z,2.03
2019-03-20T10:53:54.332Z,2.00
2019-03-20T10:56:24.719Z,8.20
2019-03-20T10:58:55.279Z,2.10
2019-03-20T11:01:25.808Z,7.27
2019-03-20T11:03:56.216Z,4.40
2019-03-20T11:06:26.904Z,2.93
2019-03-20T11:08:57.336Z,2.67
2019-03-20T11:11:28.093Z,1.93
2019-03-20T11:13:58.815Z,1.87
2019-03-20T11:16:29.251Z,1.80
2019-03-20T11:18:59.581Z,3.83
2019-03-20T11:21:30.226Z,1.83
2019-03-20T11:24:00.664Z,2.00
2019-03-20T11:26:32.476Z,2.00
2019-03-20T11:29:03.249Z,2.43
2019-03-20T11:31:33.797Z,2.20
2019-03-20T11:34:04.536Z,2.23
2019-03-20T11:36:35.040Z,2.47
2019-03-20T11:39:09.048Z,3.33
2019-03-20T11:41:39.651Z,2.20
2019-03-20T11:44:10.378Z,2.00
2019-03-20T11:46:40.894Z,2.07
2019-03-20T11:49:11.255Z,2.10
2019-03-20T11:51:41.840Z,1.63
2019-03-20T11:54:12.294Z,1.90
2019-03-20T11:56:42.735Z,2.07
2019-03-20T11:59:15.802Z,2.17
2019-03-20T12:01:46.284Z,1.90
2019-03-20T12:04:16.937Z,2.33
2019-03-20T12:06:47.394Z,2.27
2019-03-20T12:09:17.843Z,2.20
2019-03-20T12:11:48.324Z,2.20
2019-03-20T12:14:18.868Z,2.10
2019-03-20T12:16:49.538Z,2.27
2019-03-20T12:19:20.087Z,2.13
2019-03-20T12:21:50.524Z,2.03
2019-03-20T12:24:21.054Z,2.30
2019-03-20T12:26:51.999Z,2.37
2019-03-20T12:29:22.508Z,2.20
2019-03-20T12:31:52.973Z,2.17
2019-03-20T12:34:23.425Z,2.67
2019-03-20T12:36:56.474Z,2.73
2019-03-20T12:39:26.383Z,2.43
2019-03-20T12:41:56.936Z,2.83
2019-03-20T12:44:27.529Z,2.50
2019-03-20T12:46:57.905Z,2.53
2019-03-20T12:49:29.068Z,2.40
2019-03-20T12:51:59.663Z,2.10
2019-03-20T12:54:30.034Z,2.20
2019-03-20T12:57:00.517Z,2.80
2019-03-20T12:59:31.099Z,2.30
2019-03-20T13:02:01.647Z,2.67
2019-03-20T13:04:32.224Z,9.20
2019-03-20T13:07:02.804Z,2.80
2019-03-20T13:09:33.133Z,8.13
2019-03-20T13:12:03.590Z,11.90
2019-03-20T13:14:34.045Z,42.73
2019-03-20T13:17:04.460Z,42.83
2019-03-20T13:19:35.008Z,9.70
2019-03-20T13:22:05.665Z,3.17
2019-03-20T13:24:36.179Z,5.73
2019-03-20T13:27:07.023Z,7.10
2019-03-20T13:29:37.605Z,3.10
2019-03-20T13:32:08.309Z,4.50
2019-03-20T13:34:38.956Z,3.30
2019-03-20T13:37:09.421Z,3.23
2019-03-20T13:39:40.094Z,2.80
2019-03-20T13:42:10.700Z,2.60
2019-03-20T13:44:41.106Z,2.23
2019-03-20T13:47:11.659Z,3.30
2019-03-20T13:49:42.140Z,2.57
2019-03-20T13:52:12.810Z,2.33
2019-03-20T13:54:43.315Z,3.07
2019-03-20T13:57:13.794Z,2.50
2019-03-20T13:59:44.340Z,2.80
2019-03-20T14:02:15.020Z,2.73
2019-03-20T14:04:45.508Z,2.60
2019-03-20T14:07:16.008Z,2.60
2019-03-20T14:09:46.595Z,2.80
2019-03-20T14:12:17.109Z,2.67
2019-03-20T14:14:47.659Z,2.87
2019-03-20T14:17:18.189Z,2.80
2019-03-20T14:19:48.590Z,2.20
2019-03-20T14:22:19.207Z,2.93
2019-03-20T14:24:49.664Z,2.50
2019-03-20T14:27:20.364Z,4.10
2019-03-20T14:29:51.747Z,4.30
2019-03-20T14:32:22.546Z,1.97
2019-03-20T14:34:53.139Z,2.37
2019-03-20T14:37:23.633Z,3.40
2019-03-20T14:39:54.088Z,2.70
2019-03-20T14:42:24.787Z,2.10
2019-03-20T14:44:55.406Z,1.90
2019-03-20T14:47:25.922Z,2.20
2019-03-20T14:49:56.503Z,2.23
2019-03-20T14:52:30.670Z,1.80
2019-03-20T14:55:01.103Z,1.93
2019-03-20T14:57:31.703Z,2.27
2019-03-20T15:00:02.160Z,2.77
2019-03-20T15:02:32.848Z,2.00
2019-03-20T15:05:03.336Z,2.20
2019-03-20T15:07:33.859Z,2.23
2019-03-20T15:10:04.827Z,1.83
2019-03-20T15:12:35.618Z,1.80
2019-03-20T15:15:20.133Z,1.90
2019-03-20T15:17:50.715Z,1.70
2019-03-20T15:20:21.340Z,2.20
2019-03-20T15:22:51.960Z,1.83
2019-03-20T15:25:22.644Z,1.80
2019-03-20T15:27:53.168Z,2.10
2019-03-20T15:30:24.188Z,2.50
2019-03-20T15:32:54.719Z,2.57
2019-03-20T15:35:25.277Z,2.53
2019-03-20T15:37:55.998Z,2.50
2019-03-20T15:40:26.929Z,2.40
2019-03-20T15:42:57.749Z,2.10
2019-03-20T15:45:28.375Z,2.23
2019-03-20T15:47:58.869Z,2.20
2019-03-20T15:50:29.964Z,2.77
2019-03-20T15:53:00.507Z,3.00
2019-03-20T15:55:32.014Z,2.30
2019-03-20T15:58:02.756Z,2.43
2019-03-20T16:00:33.309Z,2.10
2019-03-20T16:03:08.387Z,2.03
2019-03-20T16:05:38.984Z,2.37
2019-03-20T16:08:09.983Z,2.80
2019-03-20T16:10:40.844Z,2.70
2019-03-20T16:13:11.539Z,2.47
2019-03-20T16:15:42.112Z,2.67
2019-03-20T16:18:12.798Z,3.20
2019-03-20T16:20:43.543Z,3.37
2019-03-20T16:23:14.146Z,2.60
2019-03-20T16:25:45.362Z,2.70
2019-03-20T16:28:15.923Z,2.77
2019-03-20T16:30:46.634Z,2.70
2019-03-20T16:33:17.114Z,2.80
2019-03-20T16:35:47.728Z,3.70
2019-03-20T16:38:19.321Z,5.20
2019-03-20T16:40:49.963Z,5.27
2019-03-20T16:43:20.533Z,5.73
2019-03-20T16:45:51.108Z,5.80
2019-03-20T16:48:21.789Z,5.30
2019-03-20T16:50:52.325Z,4.90
2019-03-20T16:53:23.070Z,5.37
2019-03-20T16:55:53.699Z,5.17
2019-03-20T16:58:24.200Z,5.03
2019-03-20T17:00:58.774Z,5.17
2019-03-20T17:03:29.779Z,4.27
2019-03-20T17:06:01.564Z,4.33
2019-03-20T17:08:35.375Z,4.27
2019-03-20T17:11:08.687Z,4.17
2019-03-20T17:13:39.384Z,5.20
2019-03-20T17:16:10.004Z,5.60
2019-03-20T17:18:40.624Z,6.63
2019-03-20T17:21:12.565Z,7.53
2019-03-20T17:23:44.488Z,7.67
2019-03-20T17:26:15.519Z,8.23
2019-03-20T17:28:48.118Z,8.23
2019-03-20T17:31:21.839Z,8.50
2019-03-20T17:33:53.632Z,10.07
2019-03-20T17:36:24.569Z,9.77
2019-03-20T17:38:55.187Z,10.97
2019-03-20T17:41:36.586Z,12.07
2019-03-20T17:44:05.629Z,11.77
2019-03-20T17:46:37.374Z,11.03
2019-03-20T17:49:09.068Z,11.60
2019-03-20T17:51:39.696Z,12.67
2019-03-20T17:54:10.479Z,14.57
2019-03-20T17:56:41.043Z,19.40
2019-03-20T17:59:13.343Z,22.53
2019-03-20T18:01:44.145Z,22.93
2019-03-20T18:04:16.045Z,23.37
2019-03-20T18:06:46.888Z,23.00
2019-03-20T18:09:19.987Z,26.93
2019-03-20T18:11:54.089Z,26.07
2019-03-20T18:14:26.988Z,23.00
2019-03-20T18:16:57.704Z,24.17
2019-03-20T18:19:31.295Z,29.83
2019-03-20T18:22:01.914Z,29.57
2019-03-20T18:24:35.308Z,27.07
2019-03-20T18:27:06.251Z,28.63
2019-03-20T18:29:38.913Z,24.77
2019-03-20T18:32:14.052Z,22.60
2019-03-20T18:34:49.938Z,21.60
2019-03-20T18:37:25.353Z,18.40
2019-03-20T18:39:58.458Z,19.80
2019-03-20T18:42:33.515Z,21.20
2019-03-20T18:45:07.620Z,20.70
2019-03-20T18:47:45.353Z,18.53
2019-03-20T18:50:19.676Z,18.43
2019-03-20T18:52:53.095Z,22.20
2019-03-20T18:55:24.812Z,25.20
2019-03-20T18:58:01.108Z,27.37
2019-03-20T19:00:34.218Z,24.60
2019-03-20T19:03:13.750Z,25.37
2019-03-20T19:05:59.752Z,27.73
2019-03-20T19:08:41.214Z,33.20
2019-03-20T19:11:11.997Z,55.07
2019-03-20T19:13:44.915Z,59.47
2019-03-20T19:16:15.648Z,60.47
2019-03-20T19:18:50.859Z,45.70
2019-03-20T19:21:21.740Z,56.30
2019-03-20T19:23:56.700Z,43.17
2019-03-20T19:26:27.355Z,42.37
2019-03-20T19:29:03.247Z,33.23
2019-03-20T19:31:34.910Z,31.70
2019-03-20T19:34:13.103Z,29.50
2019-03-20T19:36:47.343Z,28.00
2019-03-20T19:39:33.224Z,24.83
2019-03-20T19:42:04.968Z,22.53
2019-03-20T19:44:45.108Z,24.97
2019-03-20T19:47:16.223Z,30.20
2019-03-20T19:49:50.368Z,34.50
2019-03-20T19:52:32.670Z,30.67
2019-03-20T19:55:18.645Z,34.57
2019-03-20T19:57:51.635Z,37.00
2019-03-20T20:00:23.809Z,41.27
2019-03-20T20:02:57.117Z,39.03
2019-03-20T20:05:30.324Z,39.87
2019-03-20T20:08:04.607Z,37.60
2019-03-20T20:10:42.261Z,32.03
2019-03-20T20:13:15.029Z,33.20
2019-03-20T20:15:47.690Z,32.73
2019-03-20T20:18:22.479Z,34.13
2019-03-20T20:21:12.214Z,33.23
2019-03-20T20:23:44.118Z,34.50
2019-03-20T20:26:15.174Z,31.33
2019-03-20T20:28:45.950Z,30.00
2019-03-20T20:31:19.750Z,30.43
2019-03-20T20:33:54.688Z,30.53
2019-03-20T20:36:28.926Z,30.97
2019-03-20T20:39:07.253Z,27.33
2019-03-20T20:41:38.258Z,36.67
2019-03-20T20:44:13.637Z,34.27
2019-03-20T20:46:49.837Z,38.40
2019-03-20T20:49:22.678Z,40.43
2019-03-20T20:51:53.741Z,39.37
2019-03-20T20:54:28.377Z,37.93
2019-03-20T20:56:58.998Z,36.40
2019-03-20T20:59:30.708Z,33.83
2019-03-20T21:02:01.471Z,33.97
2019-03-20T21:04:32.209Z,28.73
2019-03-20T21:07:03.893Z,35.20
2019-03-20T21:09:34.630Z,33.73
2019-03-20T21:12:05.793Z,33.17
2019-03-20T21:14:36.483Z,37.90
2019-03-20T21:17:12.727Z,43.60
2019-03-20T21:19:45.438Z,35.40
2019-03-20T21:23:13.395Z,33.03
2019-03-20T21:25:44.804Z,28.13
2019-03-20T21:29:12.681Z,29.80
2019-03-20T21:31:53.719Z,29.37
2019-03-20T21:35:21.580Z,29.20
2019-03-20T21:38:17.300Z,31.83
2019-03-20T21:41:45.252Z,32.90
2019-03-20T21:45:07.174Z,32.27
2019-03-20T21:47:36.394Z,37.47
2019-03-20T21:51:04.885Z,52.17
2019-03-20T21:54:07.453Z,51.97
2019-03-20T21:56:42.718Z,45.50
2019-03-20T21:59:41.089Z,42.60
2019-03-20T22:02:50.183Z,41.80
2019-03-20T22:05:47.334Z,34.90
2019-03-20T22:08:18.529Z,36.27
2019-03-20T22:11:46.433Z,41.47
2019-03-20T22:14:18.421Z,47.10
2019-03-20T22:17:50.992Z,41.17
2019-03-20T22:20:49.215Z,44.40
2019-03-20T22:24:17.157Z,41.97
2019-03-20T22:27:39.964Z,36.80
2019-03-20T22:30:11.567Z,33.70
2019-03-20T22:33:39.512Z,31.67
2019-03-20T22:36:20.954Z,33.53
2019-03-20T22:39:42.393Z,32.17
2019-03-20T22:42:50.854Z,30.30
2019-03-20T22:46:12.604Z,32.37
2019-03-20T22:49:12.214Z,34.33
2019-03-20T22:52:27.145Z,40.10
2019-03-20T22:55:31.102Z,39.83
2019-03-20T22:58:50.323Z,42.50
2019-03-20T23:01:44.018Z,44.93
2019-03-20T23:04:28.024Z,43.70
2019-03-20T23:06:59.368Z,45.43
2019-03-20T23:09:30.769Z,47.83
2019-03-20T23:12:05.908Z,49.17
2019-03-20T23:14:37.188Z,44.00
2019-03-20T23:17:08.587Z,43.77
2019-03-20T23:19:41.271Z,44.83
2019-03-20T23:22:13.249Z,42.37
2019-03-20T23:24:45.729Z,41.63
2019-03-20T23:27:22.782Z,41.57
2019-03-20T23:29:54.115Z,41.67
2019-03-20T23:32:25.835Z,42.30
2019-03-20T23:34:57.099Z,44.30
2019-03-20T23:37:28.615Z,49.80
2019-03-20T23:40:00.028Z,49.00
2019-03-20T23:42:31.580Z,43.73
2019-03-20T23:45:02.889Z,43.00
2019-03-20T23:47:59.728Z,42.90
2019-03-20T23:50:31.060Z,40.10
2019-03-20T23:53:02.392Z,39.63
2019-03-20T23:55:33.874Z,41.60
2019-03-20T23:58:05.313Z,40.70
